createdAt,value
2018-08-11T00:01:54.913Z,40.30
2018-08-11T00:09:24.183Z,40.60
2018-08-11T00:11:54.191Z,40.50
2018-08-11T00:14:24.335Z,40.20
2018-08-11T00:16:54.387Z,40.50
2018-08-11T00:19:24.445Z,40.60
2018-08-11T00:21:54.490Z,40.50
2018-08-11T00:24:24.495Z,40.90
2018-08-11T00:26:54.731Z,40.50
2018-08-11T00:29:24.726Z,40.70
2018-08-11T00:31:54.608Z,40.80
2018-08-11T00:34:24.600Z,40.80
2018-08-11T00:36:54.721Z,40.80
2018-08-11T00:39:24.670Z,40.70
2018-08-11T00:41:54.722Z,41.10
2018-08-11T00:44:24.787Z,41.70
2018-08-11T00:46:54.951Z,41.10
2018-08-11T00:49:25.172Z,41.40
2018-08-11T00:51:55.150Z,41.30
2018-08-11T00:54:25.220Z,41.50
2018-08-11T00:56:55.096Z,41.60
2018-08-11T00:59:25.752Z,42.50
2018-08-11T01:01:56.103Z,41.80
2018-08-11T01:04:26.457Z,41.90
2018-08-11T01:06:56.681Z,42.40
2018-08-11T01:09:26.878Z,42.40
2018-08-11T01:11:57.066Z,43.00
2018-08-11T01:14:27.148Z,45.20
2018-08-11T01:16:57.224Z,50.80
2018-08-11T01:19:27.231Z,53.60
2018-08-11T01:21:57.457Z,55.90
2018-08-11T01:24:27.540Z,58.30
2018-08-11T01:26:57.607Z,60.50
2018-08-11T01:29:27.678Z,62.30
2018-08-11T01:31:57.593Z,65.40
2018-08-11T01:34:27.661Z,65.70
2018-08-11T01:36:57.428Z,66.50
2018-08-11T01:39:27.593Z,66.40
2018-08-11T01:41:57.381Z,67.20
2018-08-11T01:44:27.421Z,70.70
2018-08-11T01:46:57.151Z,72.90
2018-08-11T01:49:27.257Z,74.00
2018-08-11T01:51:57.104Z,76.60
2018-08-11T01:54:27.479Z,78.80
2018-08-11T01:56:57.216Z,80.50
2018-08-11T01:59:27.255Z,82.40
2018-08-11T02:01:57.947Z,83.10
2018-08-11T02:04:29.028Z,84.30
2018-08-11T02:07:00.139Z,84.40
2018-08-11T02:09:30.666Z,85.20
2018-08-11T02:12:00.681Z,83.70
2018-08-11T02:14:30.636Z,85.30
2018-08-11T02:17:00.993Z,86.40
2018-08-11T02:19:31.193Z,87.90
2018-08-11T02:22:01.028Z,89.20
2018-08-11T02:24:30.873Z,87.60
2018-08-11T02:27:00.621Z,85.00
2018-08-11T02:29:30.622Z,83.90
2018-08-11T02:32:00.647Z,84.00
2018-08-11T02:34:32.782Z,83.80
2018-08-11T02:37:02.668Z,84.20
2018-08-11T02:39:32.567Z,84.90
2018-08-11T02:42:02.593Z,83.40
2018-08-11T02:44:32.881Z,85.00
2018-08-11T02:47:02.726Z,82.70
2018-08-11T02:49:32.676Z,84.10
2018-08-11T02:52:02.421Z,84.60
2018-08-11T02:54:32.410Z,84.00
2018-08-11T02:57:02.317Z,85.20
2018-08-11T02:59:32.370Z,85.60
2018-08-11T03:02:02.402Z,84.60
2018-08-11T03:04:32.503Z,83.90
2018-08-11T03:07:02.430Z,83.60
2018-08-11T03:09:32.333Z,84.60
2018-08-11T03:12:02.211Z,84.40
2018-08-11T03:14:32.068Z,85.80
2018-08-11T03:17:03.092Z,85.80
2018-08-11T03:19:34.109Z,85.90
2018-08-11T03:22:04.156Z,85.60
2018-08-11T03:24:34.213Z,86.20
2018-08-11T03:27:04.205Z,85.80
2018-08-11T03:29:34.233Z,85.20
2018-08-11T03:32:04.142Z,85.60
2018-08-11T03:34:34.262Z,85.70
2018-08-11T03:37:04.187Z,85.40
2018-08-11T03:39:34.108Z,85.20
2018-08-11T03:42:04.119Z,85.30
2018-08-11T03:44:34.150Z,85.90
2018-08-11T03:47:04.033Z,85.30
2018-08-11T03:49:33.960Z,85.20
2018-08-11T03:52:04.037Z,85.60
2018-08-11T03:54:33.872Z,85.70
2018-08-11T03:57:06.541Z,86.20
2018-08-11T03:59:36.803Z,86.40
2018-08-11T04:02:06.921Z,85.50
2018-08-11T04:04:36.813Z,85.20
2018-08-11T04:07:06.948Z,85.90
2018-08-11T04:09:37.078Z,85.30
2018-08-11T04:12:06.802Z,85.10
2018-08-11T04:14:36.651Z,84.90
2018-08-11T04:17:06.603Z,85.10
2018-08-11T04:19:36.361Z,85.60
2018-08-11T04:22:06.696Z,86.10
2018-08-11T04:24:36.553Z,86.80
2018-08-11T04:27:07.172Z,86.10
2018-08-11T04:29:37.001Z,86.10
2018-08-11T04:32:07.162Z,86.10
2018-08-11T04:34:36.918Z,85.70
2018-08-11T04:37:07.151Z,85.80
2018-08-11T04:39:37.196Z,85.20
2018-08-11T04:42:07.233Z,85.30
2018-08-11T04:44:36.946Z,85.00
2018-08-11T04:47:06.887Z,85.10
2018-08-11T04:49:36.806Z,84.90
2018-08-11T04:52:06.746Z,85.20
2018-08-11T04:54:36.703Z,85.70
2018-08-11T04:57:06.652Z,84.50
2018-08-11T04:59:36.599Z,84.60
2018-08-11T05:02:07.024Z,85.40
2018-08-11T05:04:37.204Z,84.30
2018-08-11T05:07:07.516Z,84.50
2018-08-11T05:09:37.273Z,85.00
2018-08-11T05:12:07.118Z,84.50
2018-08-11T05:14:37.033Z,86.00
2018-08-11T05:17:06.764Z,85.00
2018-08-11T05:19:36.638Z,85.40
2018-08-11T05:22:06.733Z,85.00
2018-08-11T05:24:37.781Z,85.60
2018-08-11T05:27:07.793Z,86.50
2018-08-11T05:29:37.713Z,86.30
2018-08-11T05:32:07.858Z,87.10
2018-08-11T05:34:37.776Z,87.50
2018-08-11T05:37:08.062Z,87.40
2018-08-11T05:39:37.729Z,87.60
2018-08-11T05:42:08.557Z,88.00
2018-08-11T05:44:38.772Z,88.00
2018-08-11T05:47:08.833Z,87.50
2018-08-11T05:49:38.662Z,89.90
2018-08-11T05:52:08.663Z,90.30
2018-08-11T05:54:38.541Z,89.70
2018-08-11T05:57:08.514Z,90.40
2018-08-11T05:59:38.382Z,91.00
2018-08-11T06:02:09.044Z,90.00
2018-08-11T06:04:38.836Z,89.30
2018-08-11T06:07:08.862Z,90.20
2018-08-11T06:09:38.899Z,90.30
2018-08-11T06:12:08.683Z,90.60
2018-08-11T06:14:38.801Z,90.60
2018-08-11T06:17:08.778Z,88.50
2018-08-11T06:19:38.880Z,89.60
2018-08-11T06:22:09.032Z,90.30
2018-08-11T06:24:38.980Z,90.70
2018-08-11T06:27:08.721Z,90.00
2018-08-11T06:29:39.027Z,90.00
2018-08-11T06:32:09.945Z,89.50
2018-08-11T06:34:39.861Z,89.70
2018-08-11T06:37:09.838Z,89.00
2018-08-11T06:39:39.834Z,89.10
2018-08-11T06:42:10.633Z,90.30
2018-08-11T06:44:40.741Z,89.60
2018-08-11T06:47:10.761Z,89.60
2018-08-11T06:49:41.719Z,89.80
2018-08-11T06:52:11.834Z,89.90
2018-08-11T06:54:41.867Z,89.50
2018-08-11T06:57:12.023Z,87.00
2018-08-11T06:59:42.527Z,86.30
2018-08-11T07:02:12.754Z,86.80
2018-08-11T07:04:42.692Z,86.70
2018-08-11T07:07:12.652Z,86.40
2018-08-11T07:09:42.664Z,83.10
2018-08-11T07:12:12.749Z,77.20
2018-08-11T07:14:42.753Z,76.00
2018-08-11T07:17:12.567Z,73.60
2018-08-11T07:19:42.581Z,75.90
2018-08-11T07:22:12.742Z,76.30
2018-08-11T07:24:42.814Z,77.70
2018-08-11T07:27:12.602Z,77.30
2018-08-11T07:29:42.633Z,78.40
2018-08-11T07:32:13.015Z,77.80
2018-08-11T07:34:44.094Z,80.00
2018-08-11T07:37:13.991Z,79.00
2018-08-11T07:39:44.041Z,76.00
2018-08-11T07:42:13.952Z,75.10
2018-08-11T07:44:43.998Z,73.20
2018-08-11T07:47:13.933Z,72.40
2018-08-11T07:49:44.126Z,72.80
2018-08-11T07:52:14.176Z,68.30
2018-08-11T07:54:44.108Z,69.30
2018-08-11T07:57:13.859Z,68.90
2018-08-11T07:59:43.626Z,67.70
2018-08-11T08:02:13.431Z,67.50
2018-08-11T08:04:43.375Z,68.00
2018-08-11T08:07:13.234Z,67.80
2018-08-11T08:09:43.497Z,66.60
2018-08-11T08:12:13.310Z,63.90
2018-08-11T08:14:43.229Z,63.10
2018-08-11T08:17:13.355Z,65.20
2018-08-11T08:19:43.378Z,66.00
2018-08-11T08:22:13.423Z,63.30
2018-08-11T08:24:43.379Z,62.80
2018-08-11T08:27:13.209Z,64.00
2018-08-11T08:29:43.298Z,65.70
2018-08-11T08:32:13.521Z,63.50
2018-08-11T08:34:43.654Z,62.70
2018-08-11T08:37:13.934Z,61.40
2018-08-11T08:39:43.930Z,61.00
2018-08-11T08:42:13.954Z,59.30
2018-08-11T08:44:44.033Z,60.60
2018-08-11T08:47:14.002Z,60.60
2018-08-11T08:49:43.996Z,60.90
2018-08-11T08:52:13.959Z,56.50
2018-08-11T08:54:43.998Z,56.00
2018-08-11T08:57:13.846Z,57.00
2018-08-11T08:59:44.046Z,55.70
2018-08-11T09:02:14.051Z,55.10
2018-08-11T09:04:44.028Z,55.70
2018-08-11T09:07:14.165Z,56.50
2018-08-11T09:09:44.358Z,55.80
2018-08-11T09:12:14.374Z,54.40
2018-08-11T09:14:44.193Z,55.50
2018-08-11T09:17:14.025Z,56.00
2018-08-11T09:19:43.797Z,55.00
2018-08-11T09:22:13.778Z,53.10
2018-08-11T09:24:43.894Z,54.40
2018-08-11T09:27:13.645Z,54.20
2018-08-11T09:29:43.719Z,53.60
2018-08-11T09:32:13.469Z,52.20
2018-08-11T09:34:43.282Z,50.40
2018-08-11T09:37:13.394Z,49.90
2018-08-11T09:39:43.373Z,49.50
2018-08-11T09:42:16.288Z,50.40
2018-08-11T09:44:46.328Z,50.70
2018-08-11T09:47:16.097Z,50.00
2018-08-11T09:49:45.914Z,50.20
2018-08-11T09:52:15.830Z,50.60
2018-08-11T09:54:45.665Z,50.00
2018-08-11T09:57:15.814Z,50.00
2018-08-11T09:59:45.680Z,48.00
2018-08-11T10:02:16.745Z,48.20
2018-08-11T10:04:46.762Z,46.90
2018-08-11T10:07:16.639Z,47.60
2018-08-11T10:09:46.798Z,47.90
2018-08-11T10:12:16.879Z,47.60
2018-08-11T10:14:46.764Z,48.20
2018-08-11T10:17:16.907Z,47.20
2018-08-11T10:19:46.842Z,46.70
2018-08-11T10:22:16.885Z,47.10
2018-08-11T10:24:53.531Z,47.70
2018-08-11T10:27:23.754Z,47.60
2018-08-11T10:29:53.630Z,47.80
2018-08-11T10:32:23.615Z,48.10
2018-08-11T10:34:53.642Z,48.20
2018-08-11T10:37:23.680Z,46.70
2018-08-11T10:39:53.669Z,46.10
2018-08-11T10:42:23.523Z,46.30
2018-08-11T10:44:53.388Z,44.90
2018-08-11T10:47:23.387Z,43.30
2018-08-11T10:49:53.543Z,44.90
2018-08-11T10:52:23.441Z,44.20
2018-08-11T10:54:53.563Z,45.10
2018-08-11T10:57:23.594Z,44.90
2018-08-11T10:59:53.528Z,45.10
2018-08-11T11:02:24.453Z,43.90
2018-08-11T11:09:47.375Z,45.00
2018-08-11T11:12:17.410Z,43.00
2018-08-11T11:14:47.397Z,42.30
2018-08-11T11:17:17.391Z,42.10
2018-08-11T11:19:47.646Z,41.90
2018-08-11T11:22:17.443Z,42.80
2018-08-11T11:24:47.249Z,42.70
2018-08-11T11:27:17.120Z,42.40
2018-08-11T11:29:47.204Z,43.60
2018-08-11T11:32:17.033Z,43.00
2018-08-11T11:34:46.960Z,43.70
2018-08-11T11:37:16.942Z,43.90
2018-08-11T11:39:46.871Z,42.70
2018-08-11T11:42:17.649Z,41.70
2018-08-11T11:49:40.244Z,42.50
2018-08-11T11:52:10.366Z,42.30
2018-08-11T11:54:40.548Z,42.90
2018-08-11T11:57:10.752Z,42.50
2018-08-11T11:59:40.620Z,42.00
2018-08-11T12:02:10.863Z,42.40
2018-08-11T12:04:40.863Z,41.40
2018-08-11T12:07:10.671Z,42.00
2018-08-11T12:09:40.580Z,41.20
2018-08-11T12:12:10.678Z,40.00
2018-08-11T12:14:40.713Z,39.70
2018-08-11T12:17:10.715Z,41.00
2018-08-11T12:19:40.880Z,41.80
2018-08-11T12:22:10.713Z,41.90
2018-08-11T12:24:40.854Z,39.00
2018-08-11T12:27:10.627Z,38.20
2018-08-11T12:29:40.422Z,38.90
2018-08-11T12:32:10.360Z,38.30
2018-08-11T12:34:40.373Z,38.70
2018-08-11T12:37:10.779Z,38.40
2018-08-11T12:39:40.768Z,37.90
2018-08-11T12:42:11.072Z,37.90
2018-08-11T12:44:41.409Z,37.00
2018-08-11T12:47:11.576Z,37.70
2018-08-11T12:49:41.613Z,37.10
2018-08-11T12:52:11.533Z,36.30
2018-08-11T12:54:41.552Z,35.90
2018-08-11T12:57:11.547Z,36.30
2018-08-11T12:59:41.638Z,35.40
2018-08-11T13:02:11.786Z,35.30
2018-08-11T13:04:41.663Z,36.00
2018-08-11T13:07:11.686Z,35.30
2018-08-11T13:09:41.745Z,35.40
2018-08-11T13:12:14.695Z,35.20
2018-08-11T13:14:44.861Z,34.10
2018-08-11T13:17:15.029Z,33.50
2018-08-11T13:19:45.114Z,34.40
2018-08-11T13:22:15.108Z,34.90
2018-08-11T13:24:48.005Z,34.80
2018-08-11T13:27:18.124Z,34.90
2018-08-11T13:29:48.051Z,34.70
2018-08-11T13:32:17.894Z,34.00
2018-08-11T13:34:47.804Z,34.50
2018-08-11T13:37:17.745Z,34.20
2018-08-11T13:39:50.296Z,34.90
2018-08-11T13:42:20.708Z,34.90
2018-08-11T13:44:50.465Z,34.70
2018-08-11T13:47:21.421Z,35.40
2018-08-11T13:49:52.664Z,35.10
2018-08-11T13:52:22.560Z,34.80
2018-08-11T13:54:52.596Z,34.20
2018-08-11T13:57:22.664Z,34.60
2018-08-11T13:59:52.595Z,34.70
2018-08-11T14:02:22.791Z,34.20
2018-08-11T14:04:52.994Z,33.70
2018-08-11T14:07:23.223Z,33.30
2018-08-11T14:09:53.225Z,33.50
2018-08-11T14:12:23.313Z,34.10
2018-08-11T14:14:53.624Z,32.90
2018-08-11T14:17:23.750Z,32.60
2018-08-11T14:19:53.541Z,32.30
2018-08-11T14:22:23.551Z,32.80
2018-08-11T14:24:53.539Z,33.10
2018-08-11T14:27:23.657Z,33.10
2018-08-11T14:29:53.653Z,33.00
2018-08-11T14:32:23.684Z,32.60
2018-08-11T14:34:53.831Z,32.60
2018-08-11T14:37:23.875Z,31.80
2018-08-11T14:39:53.743Z,31.90
2018-08-11T14:42:26.699Z,31.70
2018-08-11T14:44:56.710Z,32.20
2018-08-11T14:47:26.670Z,31.90
2018-08-11T14:49:56.763Z,31.70
2018-08-11T14:52:26.881Z,31.90
2018-08-11T14:54:57.207Z,32.20
2018-08-11T14:57:27.138Z,31.90
2018-08-11T14:59:57.161Z,31.70
2018-08-11T15:02:27.562Z,32.40
2018-08-11T15:04:58.608Z,32.20
2018-08-11T15:07:29.546Z,32.70
2018-08-11T15:09:59.338Z,33.00
2018-08-11T15:12:29.289Z,32.50
2018-08-11T15:14:59.269Z,31.40
2018-08-11T15:17:29.358Z,32.80
2018-08-11T15:19:59.305Z,32.70
2018-08-11T15:22:29.294Z,33.30
2018-08-11T15:24:59.279Z,32.30
2018-08-11T15:27:29.222Z,32.00
2018-08-11T15:30:01.127Z,31.60
2018-08-11T15:32:31.656Z,31.70
2018-08-11T15:35:01.692Z,31.80
2018-08-11T15:37:31.651Z,31.60
2018-08-11T15:40:01.922Z,31.60
2018-08-11T15:42:31.974Z,31.20
2018-08-11T15:45:02.309Z,30.60
2018-08-11T15:47:32.502Z,31.40
2018-08-11T15:50:02.597Z,30.90
2018-08-11T15:52:32.777Z,31.30
2018-08-11T15:55:02.888Z,31.70
2018-08-11T15:57:33.007Z,32.50
2018-08-11T16:00:02.995Z,32.40
2018-08-11T16:02:33.256Z,32.30
2018-08-11T16:05:03.149Z,33.20
2018-08-11T16:07:33.159Z,33.30
2018-08-11T16:10:03.465Z,33.70
2018-08-11T16:12:33.617Z,32.40
2018-08-11T16:15:03.930Z,32.00
2018-08-11T16:17:34.740Z,30.90
2018-08-11T16:20:05.876Z,30.00
2018-08-11T16:22:36.044Z,30.60
2018-08-11T16:25:05.975Z,31.80
2018-08-11T16:27:36.062Z,32.50
2018-08-11T16:30:08.627Z,34.00
2018-08-11T16:32:38.571Z,34.70
2018-08-11T16:35:08.850Z,35.40
2018-08-11T16:37:39.268Z,35.20
2018-08-11T16:40:09.707Z,35.70
2018-08-11T16:42:39.827Z,34.70
2018-08-11T16:45:09.637Z,34.20
2018-08-11T16:47:39.724Z,33.00
2018-08-11T16:50:09.800Z,32.50
2018-08-11T16:52:39.841Z,32.70
2018-08-11T16:55:10.080Z,31.70
2018-08-11T16:57:40.204Z,31.10
2018-08-11T17:00:13.052Z,30.70
2018-08-11T17:02:43.804Z,29.40
2018-08-11T17:05:14.181Z,29.90
2018-08-11T17:07:44.105Z,29.90
2018-08-11T17:10:14.201Z,29.90
2018-08-11T17:12:44.337Z,29.70
2018-08-11T17:15:14.355Z,29.80
2018-08-11T17:17:44.492Z,29.60
2018-08-11T17:20:15.177Z,29.60
2018-08-11T17:22:45.230Z,29.90
2018-08-11T17:25:14.971Z,30.30
2018-08-11T17:27:44.931Z,30.50
2018-08-11T17:30:14.779Z,31.60
2018-08-11T17:32:44.853Z,32.00
2018-08-11T17:35:16.835Z,32.70
2018-08-11T17:37:46.958Z,33.10
2018-08-11T17:40:16.991Z,33.20
2018-08-11T17:42:47.013Z,33.50
2018-08-11T17:45:17.186Z,33.40
2018-08-11T17:47:47.214Z,34.00
2018-08-11T17:50:17.339Z,34.70
2018-08-11T17:52:47.680Z,35.60
2018-08-11T17:55:17.797Z,35.90
2018-08-11T17:57:47.858Z,36.50
2018-08-11T18:00:18.140Z,36.70
2018-08-11T18:02:48.281Z,36.70
2018-08-11T18:05:18.338Z,36.80
2018-08-11T18:07:47.902Z,37.00
2018-08-11T18:10:18.215Z,37.10
2018-08-11T18:12:48.788Z,37.20
2018-08-11T18:15:18.880Z,37.40
2018-08-11T18:17:49.029Z,37.40
2018-08-11T18:20:19.618Z,37.70
2018-08-11T18:22:49.660Z,37.40
2018-08-11T18:25:19.845Z,37.10
2018-08-11T18:27:50.086Z,37.40
2018-08-11T18:30:20.278Z,37.60
2018-08-11T18:32:50.441Z,37.70
2018-08-11T18:35:20.516Z,37.80
2018-08-11T18:37:50.861Z,37.90
2018-08-11T18:40:21.195Z,38.10
2018-08-11T18:42:51.580Z,37.10
2018-08-11T18:45:21.745Z,36.80
2018-08-11T18:47:51.825Z,37.00
2018-08-11T18:50:21.942Z,37.10
2018-08-11T18:52:52.217Z,37.10
2018-08-11T18:55:22.521Z,37.10
2018-08-11T18:57:52.914Z,37.30
2018-08-11T19:00:23.368Z,37.20
2018-08-11T19:02:53.614Z,37.50
2018-08-11T19:05:23.940Z,37.70
2018-08-11T19:07:53.909Z,37.80
2018-08-11T19:10:24.170Z,38.10
2018-08-11T19:12:54.503Z,37.50
2018-08-11T19:15:24.881Z,37.70
2018-08-11T19:17:55.097Z,37.80
2018-08-11T19:20:25.238Z,38.00
2018-08-11T19:22:55.332Z,38.10
2018-08-11T19:25:25.676Z,38.40
2018-08-11T19:27:55.942Z,38.70
2018-08-11T19:30:26.185Z,39.60
2018-08-11T19:32:56.375Z,40.40
2018-08-11T19:35:26.795Z,40.70
2018-08-11T19:37:57.065Z,40.80
2018-08-11T19:40:27.313Z,40.90
2018-08-11T19:42:57.750Z,41.10
2018-08-11T19:45:27.972Z,41.40
2018-08-11T19:47:58.200Z,41.40
2018-08-11T19:50:28.156Z,41.40
2018-08-11T19:52:58.342Z,41.40
2018-08-11T19:55:28.617Z,41.60
2018-08-11T19:57:58.822Z,41.80
2018-08-11T20:00:35.881Z,42.10
2018-08-11T20:03:06.251Z,42.40
2018-08-11T20:05:36.762Z,42.80
2018-08-11T20:08:07.172Z,42.70
2018-08-11T20:10:37.455Z,43.10
2018-08-11T20:13:07.581Z,43.30
2018-08-11T20:15:37.950Z,43.30
2018-08-11T20:18:08.042Z,43.60
2018-08-11T20:20:38.114Z,43.70
2018-08-11T20:23:08.081Z,44.30
2018-08-11T20:25:38.143Z,44.30
2018-08-11T20:28:08.494Z,44.60
2018-08-11T20:31:09.393Z,44.60
2018-08-11T20:33:40.554Z,44.80
2018-08-11T20:36:11.595Z,45.10
2018-08-11T20:38:41.691Z,45.10
2018-08-11T20:41:11.781Z,45.20
2018-08-11T20:43:41.865Z,45.10
2018-08-11T20:46:12.135Z,45.50
2018-08-11T20:48:42.347Z,45.40
2018-08-11T20:51:12.641Z,45.90
2018-08-11T20:53:42.776Z,46.20
2018-08-11T20:56:13.077Z,46.30
2018-08-11T20:58:43.375Z,46.60
2018-08-11T21:01:13.496Z,46.80
2018-08-11T21:03:43.683Z,46.70
2018-08-11T21:06:13.802Z,46.80
2018-08-11T21:08:44.039Z,47.00
2018-08-11T21:11:14.359Z,47.10
2018-08-11T21:13:44.399Z,47.40
2018-08-11T21:16:14.661Z,47.10
2018-08-11T21:18:44.883Z,47.40
2018-08-11T21:21:14.937Z,47.80
2018-08-11T21:23:44.902Z,47.90
2018-08-11T21:26:15.168Z,48.10
2018-08-11T21:28:52.027Z,48.20
2018-08-11T21:31:22.309Z,48.60
2018-08-11T21:33:52.404Z,48.70
2018-08-11T21:36:22.687Z,48.60
2018-08-11T21:38:52.783Z,49.20
2018-08-11T21:41:26.766Z,49.20
2018-08-11T21:43:56.940Z,49.20
2018-08-11T21:46:27.041Z,49.00
2018-08-11T21:48:57.105Z,49.10
2018-08-11T21:51:27.229Z,49.10
2018-08-11T21:53:57.370Z,49.40
2018-08-11T21:56:27.492Z,49.10
2018-08-11T21:58:57.665Z,49.50
2018-08-11T22:01:31.896Z,49.60
2018-08-11T22:04:02.105Z,49.80
2018-08-11T22:06:31.966Z,50.00
2018-08-11T22:09:01.786Z,50.20
2018-08-11T22:11:31.822Z,50.20
2018-08-11T22:14:01.755Z,50.50
2018-08-11T22:16:31.726Z,50.90
2018-08-11T22:19:01.897Z,51.10
2018-08-11T22:21:32.082Z,51.10
2018-08-11T22:24:02.406Z,51.00
2018-08-11T22:26:32.442Z,51.10
2018-08-11T22:29:02.341Z,51.10
2018-08-11T22:31:32.331Z,51.40
2018-08-11T22:34:02.393Z,51.80
2018-08-11T22:36:32.339Z,52.40
2018-08-11T22:39:02.495Z,52.70
2018-08-11T22:41:32.622Z,52.70
2018-08-11T22:44:02.856Z,52.80
2018-08-11T22:46:32.976Z,52.60
2018-08-11T22:49:03.550Z,52.70
2018-08-11T22:51:33.721Z,52.60
2018-08-11T22:54:03.852Z,52.70
2018-08-11T22:56:33.909Z,52.30
2018-08-11T22:59:04.070Z,52.60
2018-08-11T23:01:33.962Z,52.80
2018-08-11T23:04:04.207Z,53.10
2018-08-11T23:06:34.172Z,53.50
2018-08-11T23:09:05.610Z,53.70
2018-08-11T23:11:35.496Z,53.80
2018-08-11T23:14:05.641Z,54.20
2018-08-11T23:16:35.638Z,54.20
2018-08-11T23:19:05.837Z,54.20
2018-08-11T23:21:36.307Z,54.10
2018-08-11T23:24:06.518Z,54.20
2018-08-11T23:26:39.687Z,54.10
2018-08-11T23:29:10.367Z,54.30
2018-08-11T23:31:41.412Z,54.70
2018-08-11T23:34:11.498Z,55.00
2018-08-11T23:36:41.417Z,55.90
2018-08-11T23:39:12.360Z,55.10
2018-08-11T23:41:42.361Z,55.30
2018-08-11T23:44:12.487Z,55.60
2018-08-11T23:46:42.525Z,55.80
2018-08-11T23:49:12.658Z,56.40
2018-08-11T23:51:42.587Z,56.40
2018-08-11T23:54:12.552Z,56.50
2018-08-11T23:56:42.425Z,56.30
2018-08-11T23:59:12.548Z,56.80
